This is the latest recevied weather packets stored in our database for station/object WA4OPQ-1. If no packets are shown the sender has not sent any weather packets the latest 10 day(s).
| Time | Temp. | Humidity | Pressure | Rain* | Wind** | Luminosity | Snow |
|---|---|---|---|---|---|---|---|
| 1787755334 | 25.56° C | 83% | 1013 hPa | 0 mm | 0 m/s | 201 W/m² | - |
| 1787754739 | 25.56° C | 81% | 1013.1 hPa | 0 mm | 0 m/s | 250 W/m² | - |
| 1787754177 | 25° C | 85% | 1013.6 hPa | 0 mm | 0 m/s | 227 W/m² | - |
| 1787753584 | 25° C | 84% | 1013.7 hPa | 0 mm | 0 m/s | 196 W/m² | - |
| 1787753089 | 24.44° C | 86% | 1013.8 hPa | 0 mm | 0 m/s | 176 W/m² | - |
| 1787752585 | 23.89° C | 86% | 1013.8 hPa | 0 mm | 0 m/s | 162 W/m² | - |
| 1787751994 | 23.33° C | 86% | 1013.9 hPa | 0 mm | 0 m/s | 143 W/m² | - |
| 1787751449 | 23.33° C | 86% | 1014 hPa | 0 mm | 0 m/s | 127 W/m² | - |
| 1787750908 | 22.78° C | 88% | 1014.2 hPa | 0 mm | 0 m/s | 124 W/m² | - |
| 1787750429 | 22.78° C | 91% | 1014 hPa | 0 mm | 0 m/s | 127 W/m² | - |
| 1787749871 | 21.67° C | 93% | 1014.5 hPa | 0 mm | 0 m/s | 107 W/m² | - |
| 1787749294 | 21.67° C | 93% | 1014.1 hPa | 0 mm | 0 m/s | 88 W/m² | - |
| 1787748709 | 21.11° C | 95% | 1014.3 hPa | 0 mm | 0 m/s | 83 W/m² | - |
| 1787748204 | 20.56° C | 97% | 1014.5 hPa | 0 mm | 0 m/s | 60 W/m² | - |
| 1787747629 | 20° C | 97% | 1014.9 hPa | 0 mm | 0 m/s | 36 W/m² | - |
| 1787747114 | 20° C | 97% | 1014.5 hPa | 0 mm | 0 m/s | 48 W/m² | - |
| 1787746599 | 19.44° C | 98% | 1014.3 hPa | 0 mm | 0 m/s | 27 W/m² | - |
| 1787746037 | 18.89° C | 98% | 1014.4 hPa | 0 mm | 0 m/s | 21 W/m² | - |
| 1787745477 | 18.89° C | 98% | 1014.5 hPa | 0 mm | 0 m/s | 18 W/m² | - |
| 1787744889 | 18.89° C | 98% | 1014.3 hPa | 0 mm | 0 m/s | 11 W/m² | - |
| 1787744397 | 18.89° C | 98% | 1014.5 hPa | 0 mm | 0 m/s | 7 W/m² | - |
| 1787743869 | 18.89° C | 97% | 1014.4 hPa | 0 mm | 0 m/s | 3 W/m² | - |
| 1787743369 | 18.89° C | 96% | 1014.3 hPa | 0 mm | 0 m/s | 1 W/m² | - |
| 1787742879 | 18.89° C | 96% | 1014.1 hPa | 0 mm | 0 m/s | 0 W/m² | - |
| 1787742329 | 18.89° C | 96% | 1014 hPa | 0 mm | 0 m/s | 0 W/m² | - |
* Rain latest hour (hover to see other rain measurements)
** Current wind speed in m/s (hover to see current wind gust speed)